sensor_id;sensor_type;location;lat;lon;timestamp;temperature;humidity
10030;DHT22;5055;52.054;8.524;2023-03-31T00:01:08;11.30;97.00
10030;DHT22;5055;52.054;8.524;2023-03-31T00:03:38;11.20;97.00
10030;DHT22;5055;52.054;8.524;2023-03-31T00:06:11;11.20;97.00
10030;DHT22;5055;52.054;8.524;2023-03-31T00:08:45;11.20;97.00
10030;DHT22;5055;52.054;8.524;2023-03-31T00:11:19;11.10;97.00
10030;DHT22;5055;52.054;8.524;2023-03-31T00:13:48;11.00;97.00
10030;DHT22;5055;52.054;8.524;2023-03-31T00:16:16;11.00;97.00
10030;DHT22;5055;52.054;8.524;2023-03-31T00:18:49;10.90;97.00
10030;DHT22;5055;52.054;8.524;2023-03-31T00:21:20;10.80;97.00
10030;DHT22;5055;52.054;8.524;2023-03-31T00:23:53;10.80;97.00
10030;DHT22;5055;52.054;8.524;2023-03-31T00:26:22;10.80;97.00
10030;DHT22;5055;52.054;8.524;2023-03-31T00:28:51;10.80;97.00
10030;DHT22;5055;52.054;8.524;2023-03-31T00:31:22;10.70;97.00
10030;DHT22;5055;52.054;8.524;2023-03-31T00:33:52;10.70;97.00
10030;DHT22;5055;52.054;8.524;2023-03-31T00:36:21;10.70;97.00
10030;DHT22;5055;52.054;8.524;2023-03-31T00:38:53;10.60;97.00
10030;DHT22;5055;52.054;8.524;2023-03-31T00:41:22;10.60;97.00
10030;DHT22;5055;52.054;8.524;2023-03-31T00:44:04;10.60;97.00
10030;DHT22;5055;52.054;8.524;2023-03-31T00:46:37;10.50;97.00
10030;DHT22;5055;52.054;8.524;2023-03-31T00:49:14;10.50;97.00
10030;DHT22;5055;52.054;8.524;2023-03-31T00:51:44;10.50;97.00
10030;DHT22;5055;52.054;8.524;2023-03-31T00:54:13;10.50;97.00
10030;DHT22;5055;52.054;8.524;2023-03-31T00:56:45;10.40;97.00
10030;DHT22;5055;52.054;8.524;2023-03-31T00:59:15;10.30;97.00
10030;DHT22;5055;52.054;8.524;2023-03-31T01:01:46;10.30;97.00
10030;DHT22;5055;52.054;8.524;2023-03-31T01:04:18;10.30;97.00
10030;DHT22;5055;52.054;8.524;2023-03-31T01:06:54;10.30;97.00
10030;DHT22;5055;52.054;8.524;2023-03-31T01:09:28;10.20;97.00
10030;DHT22;5055;52.054;8.524;2023-03-31T01:12:04;10.20;97.00
10030;DHT22;5055;52.054;8.524;2023-03-31T01:14:33;10.10;97.00
10030;DHT22;5055;52.054;8.524;2023-03-31T01:17:01;10.10;97.00
10030;DHT22;5055;52.054;8.524;2023-03-31T01:19:42;10.00;97.00
10030;DHT22;5055;52.054;8.524;2023-03-31T01:28:32;9.90;97.00
10030;DHT22;5055;52.054;8.524;2023-03-31T01:34:52;9.70;97.00
10030;DHT22;5055;52.054;8.524;2023-03-31T01:38:08;9.70;97.00
10030;DHT22;5055;52.054;8.524;2023-03-31T01:41:03;9.70;97.00
10030;DHT22;5055;52.054;8.524;2023-03-31T01:43:41;9.70;97.00
10030;DHT22;5055;52.054;8.524;2023-03-31T01:46:20;9.70;97.00
10030;DHT22;5055;52.054;8.524;2023-03-31T01:48:56;9.70;97.00
10030;DHT22;5055;52.054;8.524;2023-03-31T01:51:31;9.60;97.00
10030;DHT22;5055;52.054;8.524;2023-03-31T01:54:07;9.60;97.00
10030;DHT22;5055;52.054;8.524;2023-03-31T01:56:41;9.60;97.00
10030;DHT22;5055;52.054;8.524;2023-03-31T01:59:15;9.60;97.00
10030;DHT22;5055;52.054;8.524;2023-03-31T02:01:50;9.60;97.00
10030;DHT22;5055;52.054;8.524;2023-03-31T02:04:22;9.70;97.00
10030;DHT22;5055;52.054;8.524;2023-03-31T02:06:56;9.70;97.00
10030;DHT22;5055;52.054;8.524;2023-03-31T02:09:29;9.70;97.00
10030;DHT22;5055;52.054;8.524;2023-03-31T02:12:02;9.80;97.00
10030;DHT22;5055;52.054;8.524;2023-03-31T02:14:32;9.80;97.00
10030;DHT22;5055;52.054;8.524;2023-03-31T02:17:06;9.80;97.00
10030;DHT22;5055;52.054;8.524;2023-03-31T02:19:42;9.70;97.00
10030;DHT22;5055;52.054;8.524;2023-03-31T02:22:12;9.70;97.00
10030;DHT22;5055;52.054;8.524;2023-03-31T02:24:42;9.70;97.00
10030;DHT22;5055;52.054;8.524;2023-03-31T02:27:17;9.70;97.00
10030;DHT22;5055;52.054;8.524;2023-03-31T02:29:46;9.80;97.00
10030;DHT22;5055;52.054;8.524;2023-03-31T02:32:20;9.80;97.00
10030;DHT22;5055;52.054;8.524;2023-03-31T02:34:49;9.80;97.00
10030;DHT22;5055;52.054;8.524;2023-03-31T02:37:17;9.90;97.00
10030;DHT22;5055;52.054;8.524;2023-03-31T02:39:47;9.90;97.00
10030;DHT22;5055;52.054;8.524;2023-03-31T02:42:19;9.90;97.00
10030;DHT22;5055;52.054;8.524;2023-03-31T02:44:47;9.90;97.00
10030;DHT22;5055;52.054;8.524;2023-03-31T02:47:17;10.00;97.00
10030;DHT22;5055;52.054;8.524;2023-03-31T02:49:48;10.00;97.00
10030;DHT22;5055;52.054;8.524;2023-03-31T02:52:36;10.10;97.00
10030;DHT22;5055;52.054;8.524;2023-03-31T02:58:32;10.10;97.00
10030;DHT22;5055;52.054;8.524;2023-03-31T03:01:19;10.20;97.00
10030;DHT22;5055;52.054;8.524;2023-03-31T03:04:00;10.20;97.00
10030;DHT22;5055;52.054;8.524;2023-03-31T03:06:38;10.20;97.00
10030;DHT22;5055;52.054;8.524;2023-03-31T03:09:21;10.20;97.00
10030;DHT22;5055;52.054;8.524;2023-03-31T03:11:58;10.30;97.00
10030;DHT22;5055;52.054;8.524;2023-03-31T03:14:38;10.30;97.00
10030;DHT22;5055;52.054;8.524;2023-03-31T03:17:12;10.30;97.00
10030;DHT22;5055;52.054;8.524;2023-03-31T03:19:42;10.30;97.00
10030;DHT22;5055;52.054;8.524;2023-03-31T03:22:10;10.30;97.00
10030;DHT22;5055;52.054;8.524;2023-03-31T03:24:38;10.30;97.00
10030;DHT22;5055;52.054;8.524;2023-03-31T03:27:08;10.40;97.00
10030;DHT22;5055;52.054;8.524;2023-03-31T03:29:38;10.40;97.00
10030;DHT22;5055;52.054;8.524;2023-03-31T03:32:08;10.30;97.00
10030;DHT22;5055;52.054;8.524;2023-03-31T03:34:36;10.30;97.00
10030;DHT22;5055;52.054;8.524;2023-03-31T03:37:05;10.30;97.00
10030;DHT22;5055;52.054;8.524;2023-03-31T03:39:33;10.20;97.00
10030;DHT22;5055;52.054;8.524;2023-03-31T03:42:02;10.20;97.00
10030;DHT22;5055;52.054;8.524;2023-03-31T03:44:30;10.10;97.00
10030;DHT22;5055;52.054;8.524;2023-03-31T03:47:00;10.10;97.00
10030;DHT22;5055;52.054;8.524;2023-03-31T03:49:28;10.10;97.00
10030;DHT22;5055;52.054;8.524;2023-03-31T03:51:56;10.00;97.00
10030;DHT22;5055;52.054;8.524;2023-03-31T03:54:24;10.00;97.00
10030;DHT22;5055;52.054;8.524;2023-03-31T03:56:53;10.00;97.00
10030;DHT22;5055;52.054;8.524;2023-03-31T03:59:21;9.90;97.00
10030;DHT22;5055;52.054;8.524;2023-03-31T04:01:50;9.90;97.00
10030;DHT22;5055;52.054;8.524;2023-03-31T04:04:20;9.90;97.00
10030;DHT22;5055;52.054;8.524;2023-03-31T04:06:48;9.90;97.00
10030;DHT22;5055;52.054;8.524;2023-03-31T04:09:16;9.90;97.00
10030;DHT22;5055;52.054;8.524;2023-03-31T04:11:45;9.90;97.00
10030;DHT22;5055;52.054;8.524;2023-03-31T04:14:13;9.80;97.00
10030;DHT22;5055;52.054;8.524;2023-03-31T04:16:41;9.80;97.00
10030;DHT22;5055;52.054;8.524;2023-03-31T04:19:12;9.80;97.00
10030;DHT22;5055;52.054;8.524;2023-03-31T04:21:44;9.80;97.00
10030;DHT22;5055;52.054;8.524;2023-03-31T04:24:24;9.80;97.00
10030;DHT22;5055;52.054;8.524;2023-03-31T04:26:57;9.90;97.00
10030;DHT22;5055;52.054;8.524;2023-03-31T04:29:26;9.80;97.00
10030;DHT22;5055;52.054;8.524;2023-03-31T04:31:54;9.80;97.00
10030;DHT22;5055;52.054;8.524;2023-03-31T04:34:25;9.80;97.00
10030;DHT22;5055;52.054;8.524;2023-03-31T04:37:02;9.80;97.00
10030;DHT22;5055;52.054;8.524;2023-03-31T04:39:31;9.80;97.00
10030;DHT22;5055;52.054;8.524;2023-03-31T04:42:00;9.80;97.00
10030;DHT22;5055;52.054;8.524;2023-03-31T04:44:28;9.90;97.00
10030;DHT22;5055;52.054;8.524;2023-03-31T04:46:57;9.80;97.00
10030;DHT22;5055;52.054;8.524;2023-03-31T04:49:29;9.80;97.00
10030;DHT22;5055;52.054;8.524;2023-03-31T04:51:59;9.80;97.00
10030;DHT22;5055;52.054;8.524;2023-03-31T04:54:29;9.80;97.00
10030;DHT22;5055;52.054;8.524;2023-03-31T04:56:57;9.80;97.00
10030;DHT22;5055;52.054;8.524;2023-03-31T04:59:26;9.80;97.00
10030;DHT22;5055;52.054;8.524;2023-03-31T05:01:54;9.80;97.00
10030;DHT22;5055;52.054;8.524;2023-03-31T05:04:23;9.80;97.00
10030;DHT22;5055;52.054;8.524;2023-03-31T05:06:51;9.80;97.00
10030;DHT22;5055;52.054;8.524;2023-03-31T05:09:20;9.80;97.00
10030;DHT22;5055;52.054;8.524;2023-03-31T05:11:49;9.80;97.00
10030;DHT22;5055;52.054;8.524;2023-03-31T05:14:18;9.80;97.00
10030;DHT22;5055;52.054;8.524;2023-03-31T05:16:47;9.80;97.00
10030;DHT22;5055;52.054;8.524;2023-03-31T05:19:15;9.80;97.00
10030;DHT22;5055;52.054;8.524;2023-03-31T05:21:44;9.80;97.00
10030;DHT22;5055;52.054;8.524;2023-03-31T05:24:13;9.90;97.00
10030;DHT22;5055;52.054;8.524;2023-03-31T05:26:41;9.90;97.00
10030;DHT22;5055;52.054;8.524;2023-03-31T05:29:15;9.90;97.00
10030;DHT22;5055;52.054;8.524;2023-03-31T05:31:43;9.90;97.00
10030;DHT22;5055;52.054;8.524;2023-03-31T05:34:12;9.90;97.00
10030;DHT22;5055;52.054;8.524;2023-03-31T05:36:41;9.90;97.00
10030;DHT22;5055;52.054;8.524;2023-03-31T05:39:09;9.90;97.00
10030;DHT22;5055;52.054;8.524;2023-03-31T05:41:37;9.90;97.00
10030;DHT22;5055;52.054;8.524;2023-03-31T05:44:06;10.00;97.00
10030;DHT22;5055;52.054;8.524;2023-03-31T05:46:36;10.00;97.00
10030;DHT22;5055;52.054;8.524;2023-03-31T05:49:04;10.00;97.00
10030;DHT22;5055;52.054;8.524;2023-03-31T05:51:33;10.00;97.00
10030;DHT22;5055;52.054;8.524;2023-03-31T05:54:02;10.00;97.00
10030;DHT22;5055;52.054;8.524;2023-03-31T05:56:32;10.00;97.00
10030;DHT22;5055;52.054;8.524;2023-03-31T05:59:00;10.00;97.00
10030;DHT22;5055;52.054;8.524;2023-03-31T06:01:31;10.00;97.00
10030;DHT22;5055;52.054;8.524;2023-03-31T06:04:01;10.00;97.00
10030;DHT22;5055;52.054;8.524;2023-03-31T06:06:29;10.00;97.00
10030;DHT22;5055;52.054;8.524;2023-03-31T06:08:59;10.00;97.00
10030;DHT22;5055;52.054;8.524;2023-03-31T06:11:27;10.00;97.00
10030;DHT22;5055;52.054;8.524;2023-03-31T06:13:56;10.00;97.00
10030;DHT22;5055;52.054;8.524;2023-03-31T06:16:24;10.00;97.00
10030;DHT22;5055;52.054;8.524;2023-03-31T06:18:55;10.10;97.00
10030;DHT22;5055;52.054;8.524;2023-03-31T06:21:25;10.10;97.00
10030;DHT22;5055;52.054;8.524;2023-03-31T06:23:53;10.10;97.00
10030;DHT22;5055;52.054;8.524;2023-03-31T06:26:24;10.10;97.00
10030;DHT22;5055;52.054;8.524;2023-03-31T06:28:53;10.20;97.00
10030;DHT22;5055;52.054;8.524;2023-03-31T06:31:23;10.20;97.00
10030;DHT22;5055;52.054;8.524;2023-03-31T06:33:52;10.20;97.00
10030;DHT22;5055;52.054;8.524;2023-03-31T06:36:21;10.20;97.00
10030;DHT22;5055;52.054;8.524;2023-03-31T06:38:50;10.20;97.00
10030;DHT22;5055;52.054;8.524;2023-03-31T06:41:19;10.20;97.00
10030;DHT22;5055;52.054;8.524;2023-03-31T06:43:48;10.20;97.00
10030;DHT22;5055;52.054;8.524;2023-03-31T06:46:17;10.30;97.00
10030;DHT22;5055;52.054;8.524;2023-03-31T06:48:45;10.30;97.00
10030;DHT22;5055;52.054;8.524;2023-03-31T06:51:14;10.30;97.00
10030;DHT22;5055;52.054;8.524;2023-03-31T06:53:42;10.40;97.00
10030;DHT22;5055;52.054;8.524;2023-03-31T06:56:12;10.40;97.00
10030;DHT22;5055;52.054;8.524;2023-03-31T06:58:40;10.40;97.00
10030;DHT22;5055;52.054;8.524;2023-03-31T07:01:08;10.40;97.00
10030;DHT22;5055;52.054;8.524;2023-03-31T07:03:38;10.50;97.00
10030;DHT22;5055;52.054;8.524;2023-03-31T07:06:07;10.50;97.00
10030;DHT22;5055;52.054;8.524;2023-03-31T07:08:35;10.50;97.00
10030;DHT22;5055;52.054;8.524;2023-03-31T07:11:03;10.50;97.00
10030;DHT22;5055;52.054;8.524;2023-03-31T07:13:34;10.50;97.00
10030;DHT22;5055;52.054;8.524;2023-03-31T07:16:08;10.50;97.00
10030;DHT22;5055;52.054;8.524;2023-03-31T07:18:39;10.50;97.00
10030;DHT22;5055;52.054;8.524;2023-03-31T07:21:08;10.50;97.00
10030;DHT22;5055;52.054;8.524;2023-03-31T07:23:36;10.50;97.00
10030;DHT22;5055;52.054;8.524;2023-03-31T07:26:05;10.50;97.00
10030;DHT22;5055;52.054;8.524;2023-03-31T07:28:35;10.60;97.00
10030;DHT22;5055;52.054;8.524;2023-03-31T07:31:10;10.60;97.00
10030;DHT22;5055;52.054;8.524;2023-03-31T07:33:38;10.60;97.00
10030;DHT22;5055;52.054;8.524;2023-03-31T07:36:07;10.70;97.00
10030;DHT22;5055;52.054;8.524;2023-03-31T07:38:40;10.70;97.00
10030;DHT22;5055;52.054;8.524;2023-03-31T07:41:10;10.70;97.00
10030;DHT22;5055;52.054;8.524;2023-03-31T07:43:40;10.80;97.00
10030;DHT22;5055;52.054;8.524;2023-03-31T07:46:14;10.80;97.00
10030;DHT22;5055;52.054;8.524;2023-03-31T07:48:43;10.80;97.00
10030;DHT22;5055;52.054;8.524;2023-03-31T07:51:14;10.80;97.00
10030;DHT22;5055;52.054;8.524;2023-03-31T07:53:43;10.80;97.00
10030;DHT22;5055;52.054;8.524;2023-03-31T07:56:11;10.80;97.00
10030;DHT22;5055;52.054;8.524;2023-03-31T07:58:41;10.80;97.00
10030;DHT22;5055;52.054;8.524;2023-03-31T08:01:12;10.90;97.00
10030;DHT22;5055;52.054;8.524;2023-03-31T08:03:44;10.90;97.00
10030;DHT22;5055;52.054;8.524;2023-03-31T08:06:17;10.90;97.00
10030;DHT22;5055;52.054;8.524;2023-03-31T08:08:45;10.90;97.00
10030;DHT22;5055;52.054;8.524;2023-03-31T08:11:14;10.90;97.00
10030;DHT22;5055;52.054;8.524;2023-03-31T08:13:43;10.90;97.00
10030;DHT22;5055;52.054;8.524;2023-03-31T08:16:12;10.90;97.00
10030;DHT22;5055;52.054;8.524;2023-03-31T08:18:41;10.90;97.00
10030;DHT22;5055;52.054;8.524;2023-03-31T08:21:09;10.90;97.00
10030;DHT22;5055;52.054;8.524;2023-03-31T08:23:38;10.90;97.00
10030;DHT22;5055;52.054;8.524;2023-03-31T08:26:07;10.90;97.00
10030;DHT22;5055;52.054;8.524;2023-03-31T08:28:36;10.90;97.00
10030;DHT22;5055;52.054;8.524;2023-03-31T08:31:07;10.80;97.00
10030;DHT22;5055;52.054;8.524;2023-03-31T08:33:36;10.80;97.00
10030;DHT22;5055;52.054;8.524;2023-03-31T08:36:06;10.80;97.00
10030;DHT22;5055;52.054;8.524;2023-03-31T08:38:37;10.80;97.00
10030;DHT22;5055;52.054;8.524;2023-03-31T08:41:21;10.80;97.00
10030;DHT22;5055;52.054;8.524;2023-03-31T08:43:54;10.80;97.00
10030;DHT22;5055;52.054;8.524;2023-03-31T08:46:26;10.80;97.00
10030;DHT22;5055;52.054;8.524;2023-03-31T08:48:56;10.70;97.00
10030;DHT22;5055;52.054;8.524;2023-03-31T08:51:29;10.70;97.00
10030;DHT22;5055;52.054;8.524;2023-03-31T08:54:00;10.60;97.00
10030;DHT22;5055;52.054;8.524;2023-03-31T08:56:34;10.50;97.00
10030;DHT22;5055;52.054;8.524;2023-03-31T08:59:04;10.50;97.00
10030;DHT22;5055;52.054;8.524;2023-03-31T09:01:39;10.50;97.00
10030;DHT22;5055;52.054;8.524;2023-03-31T09:04:45;10.40;97.00
10030;DHT22;5055;52.054;8.524;2023-03-31T09:07:25;10.40;97.00
10030;DHT22;5055;52.054;8.524;2023-03-31T09:10:02;10.40;97.00
10030;DHT22;5055;52.054;8.524;2023-03-31T09:12:44;10.40;97.00
10030;DHT22;5055;52.054;8.524;2023-03-31T09:15:21;10.40;97.00
10030;DHT22;5055;52.054;8.524;2023-03-31T09:17:54;10.30;97.00
10030;DHT22;5055;52.054;8.524;2023-03-31T09:20:29;10.30;97.00
10030;DHT22;5055;52.054;8.524;2023-03-31T09:23:03;10.40;97.00
10030;DHT22;5055;52.054;8.524;2023-03-31T09:25:38;10.40;97.00
10030;DHT22;5055;52.054;8.524;2023-03-31T09:28:12;10.40;97.00
10030;DHT22;5055;52.054;8.524;2023-03-31T09:30:40;10.50;97.00
10030;DHT22;5055;52.054;8.524;2023-03-31T09:33:17;10.40;97.00
10030;DHT22;5055;52.054;8.524;2023-03-31T09:35:45;10.50;97.00
10030;DHT22;5055;52.054;8.524;2023-03-31T09:38:17;10.50;97.00
10030;DHT22;5055;52.054;8.524;2023-03-31T09:40:45;10.50;97.00
10030;DHT22;5055;52.054;8.524;2023-03-31T09:43:17;10.50;97.00
10030;DHT22;5055;52.054;8.524;2023-03-31T09:45:47;10.60;97.00
10030;DHT22;5055;52.054;8.524;2023-03-31T09:48:37;10.60;97.00
10030;DHT22;5055;52.054;8.524;2023-03-31T09:51:13;10.60;97.00
10030;DHT22;5055;52.054;8.524;2023-03-31T09:53:48;10.60;97.00
10030;DHT22;5055;52.054;8.524;2023-03-31T09:56:33;10.60;97.00
10030;DHT22;5055;52.054;8.524;2023-03-31T09:59:02;10.60;97.00
10030;DHT22;5055;52.054;8.524;2023-03-31T10:01:31;10.60;97.00
10030;DHT22;5055;52.054;8.524;2023-03-31T10:04:01;10.60;97.00
10030;DHT22;5055;52.054;8.524;2023-03-31T10:06:31;10.60;97.00
10030;DHT22;5055;52.054;8.524;2023-03-31T10:09:01;10.50;97.00
10030;DHT22;5055;52.054;8.524;2023-03-31T10:11:30;10.60;97.00
10030;DHT22;5055;52.054;8.524;2023-03-31T10:14:02;10.60;97.00
10030;DHT22;5055;52.054;8.524;2023-03-31T10:16:32;10.60;97.00
10030;DHT22;5055;52.054;8.524;2023-03-31T10:19:13;10.70;97.00
10030;DHT22;5055;52.054;8.524;2023-03-31T10:21:55;10.70;97.00
10030;DHT22;5055;52.054;8.524;2023-03-31T10:24:25;10.70;97.00
10030;DHT22;5055;52.054;8.524;2023-03-31T10:26:55;10.80;97.00
10030;DHT22;5055;52.054;8.524;2023-03-31T10:29:28;10.80;97.00
10030;DHT22;5055;52.054;8.524;2023-03-31T10:32:02;10.90;97.00
10030;DHT22;5055;52.054;8.524;2023-03-31T10:34:41;11.00;97.00
10030;DHT22;5055;52.054;8.524;2023-03-31T10:37:13;11.10;97.00
10030;DHT22;5055;52.054;8.524;2023-03-31T10:39:46;11.20;97.00
10030;DHT22;5055;52.054;8.524;2023-03-31T10:42:20;11.20;97.00
10030;DHT22;5055;52.054;8.524;2023-03-31T10:44:49;11.30;97.00
10030;DHT22;5055;52.054;8.524;2023-03-31T10:47:19;11.40;97.00
10030;DHT22;5055;52.054;8.524;2023-03-31T10:49:55;11.40;97.00
10030;DHT22;5055;52.054;8.524;2023-03-31T10:52:27;11.40;97.00
10030;DHT22;5055;52.054;8.524;2023-03-31T10:54:57;11.60;97.00
10030;DHT22;5055;52.054;8.524;2023-03-31T10:57:34;11.80;97.00
10030;DHT22;5055;52.054;8.524;2023-03-31T11:00:21;11.80;97.00
10030;DHT22;5055;52.054;8.524;2023-03-31T11:03:20;11.80;97.00
10030;DHT22;5055;52.054;8.524;2023-03-31T11:06:03;11.80;97.00
10030;DHT22;5055;52.054;8.524;2023-03-31T11:08:45;11.80;97.00
10030;DHT22;5055;52.054;8.524;2023-03-31T11:11:39;11.90;97.00
10030;DHT22;5055;52.054;8.524;2023-03-31T11:14:16;11.90;97.00
10030;DHT22;5055;52.054;8.524;2023-03-31T11:16:52;11.90;97.00
10030;DHT22;5055;52.054;8.524;2023-03-31T11:19:33;11.90;97.00
10030;DHT22;5055;52.054;8.524;2023-03-31T11:22:13;11.90;97.00
10030;DHT22;5055;52.054;8.524;2023-03-31T11:25:07;12.00;97.00
10030;DHT22;5055;52.054;8.524;2023-03-31T11:27:50;12.00;97.00
10030;DHT22;5055;52.054;8.524;2023-03-31T11:30:23;12.00;97.00
10030;DHT22;5055;52.054;8.524;2023-03-31T11:33:04;12.00;97.00
10030;DHT22;5055;52.054;8.524;2023-03-31T11:35:52;12.00;97.00
10030;DHT22;5055;52.054;8.524;2023-03-31T11:38:42;12.00;97.00
10030;DHT22;5055;52.054;8.524;2023-03-31T11:41:17;12.10;97.00
10030;DHT22;5055;52.054;8.524;2023-03-31T11:43:48;12.20;97.00
10030;DHT22;5055;52.054;8.524;2023-03-31T11:46:20;12.20;97.00
10030;DHT22;5055;52.054;8.524;2023-03-31T11:48:52;12.40;97.00
10030;DHT22;5055;52.054;8.524;2023-03-31T11:51:26;12.50;97.00
10030;DHT22;5055;52.054;8.524;2023-03-31T11:53:58;12.60;97.00
10030;DHT22;5055;52.054;8.524;2023-03-31T11:56:35;12.70;97.00
10030;DHT22;5055;52.054;8.524;2023-03-31T11:59:06;12.70;97.00
10030;DHT22;5055;52.054;8.524;2023-03-31T12:01:41;12.70;97.00
10030;DHT22;5055;52.054;8.524;2023-03-31T12:04:18;12.80;97.00
10030;DHT22;5055;52.054;8.524;2023-03-31T12:06:51;12.90;97.00
10030;DHT22;5055;52.054;8.524;2023-03-31T12:09:34;12.80;97.00
10030;DHT22;5055;52.054;8.524;2023-03-31T12:12:09;12.80;97.00
10030;DHT22;5055;52.054;8.524;2023-03-31T12:14:45;12.80;97.00
10030;DHT22;5055;52.054;8.524;2023-03-31T12:17:16;12.80;97.00
10030;DHT22;5055;52.054;8.524;2023-03-31T12:19:48;12.70;97.00
10030;DHT22;5055;52.054;8.524;2023-03-31T12:22:21;12.80;97.00
10030;DHT22;5055;52.054;8.524;2023-03-31T12:24:52;12.80;97.00
10030;DHT22;5055;52.054;8.524;2023-03-31T12:27:23;12.90;97.00
10030;DHT22;5055;52.054;8.524;2023-03-31T12:29:56;13.10;97.00
10030;DHT22;5055;52.054;8.524;2023-03-31T12:32:28;13.30;97.00
10030;DHT22;5055;52.054;8.524;2023-03-31T12:35:00;13.60;97.00
10030;DHT22;5055;52.054;8.524;2023-03-31T12:37:48;13.80;97.00
10030;DHT22;5055;52.054;8.524;2023-03-31T12:40:38;14.20;97.00
10030;DHT22;5055;52.054;8.524;2023-03-31T12:43:25;14.70;97.00
10030;DHT22;5055;52.054;8.524;2023-03-31T12:46:02;14.90;97.00
10030;DHT22;5055;52.054;8.524;2023-03-31T12:48:52;15.00;97.00
10030;DHT22;5055;52.054;8.524;2023-03-31T12:51:35;15.10;97.00
10030;DHT22;5055;52.054;8.524;2023-03-31T12:54:23;15.40;97.00
10030;DHT22;5055;52.054;8.524;2023-03-31T12:57:13;15.70;97.00
10030;DHT22;5055;52.054;8.524;2023-03-31T12:59:44;15.90;97.00
10030;DHT22;5055;52.054;8.524;2023-03-31T13:02:24;15.60;97.00
10030;DHT22;5055;52.054;8.524;2023-03-31T13:04:53;15.70;97.00
10030;DHT22;5055;52.054;8.524;2023-03-31T13:07:39;15.90;97.00
10030;DHT22;5055;52.054;8.524;2023-03-31T13:10:28;15.80;97.00
10030;DHT22;5055;52.054;8.524;2023-03-31T13:13:03;15.40;97.00
10030;DHT22;5055;52.054;8.524;2023-03-31T13:15:32;15.00;97.00
10030;DHT22;5055;52.054;8.524;2023-03-31T13:18:02;14.60;97.00
10030;DHT22;5055;52.054;8.524;2023-03-31T13:20:33;14.20;97.00
10030;DHT22;5055;52.054;8.524;2023-03-31T13:23:13;13.80;97.00
10030;DHT22;5055;52.054;8.524;2023-03-31T13:25:47;13.30;97.00
10030;DHT22;5055;52.054;8.524;2023-03-31T13:28:32;13.00;97.00
10030;DHT22;5055;52.054;8.524;2023-03-31T13:31:02;12.70;97.00
10030;DHT22;5055;52.054;8.524;2023-03-31T13:33:33;12.60;97.00
10030;DHT22;5055;52.054;8.524;2023-03-31T13:45:25;12.40;97.00
10030;DHT22;5055;52.054;8.524;2023-03-31T13:48:10;12.40;97.00
10030;DHT22;5055;52.054;8.524;2023-03-31T13:50:52;12.60;97.00
10030;DHT22;5055;52.054;8.524;2023-03-31T13:53:35;13.00;97.00
10030;DHT22;5055;52.054;8.524;2023-03-31T13:56:29;13.20;97.00
10030;DHT22;5055;52.054;8.524;2023-03-31T13:59:24;13.30;97.00
10030;DHT22;5055;52.054;8.524;2023-03-31T14:02:18;13.20;97.00
10030;DHT22;5055;52.054;8.524;2023-03-31T14:05:05;13.20;97.00
10030;DHT22;5055;52.054;8.524;2023-03-31T14:07:42;13.40;97.00
10030;DHT22;5055;52.054;8.524;2023-03-31T14:10:22;13.50;97.00
10030;DHT22;5055;52.054;8.524;2023-03-31T14:12:50;13.60;97.00
10030;DHT22;5055;52.054;8.524;2023-03-31T14:15:20;13.50;97.00
10030;DHT22;5055;52.054;8.524;2023-03-31T14:17:50;13.50;97.00
10030;DHT22;5055;52.054;8.524;2023-03-31T14:20:26;13.50;97.00
10030;DHT22;5055;52.054;8.524;2023-03-31T14:23:03;13.50;97.00
10030;DHT22;5055;52.054;8.524;2023-03-31T14:25:42;13.60;97.00
10030;DHT22;5055;52.054;8.524;2023-03-31T14:28:23;13.70;97.00
10030;DHT22;5055;52.054;8.524;2023-03-31T14:31:06;13.70;97.00
10030;DHT22;5055;52.054;8.524;2023-03-31T14:33:48;13.80;97.00
10030;DHT22;5055;52.054;8.524;2023-03-31T14:36:23;13.90;97.00
10030;DHT22;5055;52.054;8.524;2023-03-31T14:39:00;13.70;97.00
10030;DHT22;5055;52.054;8.524;2023-03-31T14:41:30;13.60;97.00
10030;DHT22;5055;52.054;8.524;2023-03-31T14:44:01;13.60;97.00
10030;DHT22;5055;52.054;8.524;2023-03-31T14:46:31;13.50;97.00
10030;DHT22;5055;52.054;8.524;2023-03-31T14:49:06;13.50;97.00
10030;DHT22;5055;52.054;8.524;2023-03-31T14:51:34;13.40;97.00
10030;DHT22;5055;52.054;8.524;2023-03-31T14:54:03;13.40;97.00
10030;DHT22;5055;52.054;8.524;2023-03-31T14:56:33;13.30;97.00
10030;DHT22;5055;52.054;8.524;2023-03-31T14:59:06;13.10;97.00
10030;DHT22;5055;52.054;8.524;2023-03-31T15:01:36;13.10;97.00
10030;DHT22;5055;52.054;8.524;2023-03-31T15:04:08;13.00;97.00
10030;DHT22;5055;52.054;8.524;2023-03-31T15:06:39;13.00;97.00
10030;DHT22;5055;52.054;8.524;2023-03-31T15:09:13;13.00;97.00
10030;DHT22;5055;52.054;8.524;2023-03-31T15:11:45;12.90;97.00
10030;DHT22;5055;52.054;8.524;2023-03-31T15:14:13;12.90;97.00
10030;DHT22;5055;52.054;8.524;2023-03-31T15:16:43;12.90;97.00
10030;DHT22;5055;52.054;8.524;2023-03-31T15:19:16;13.00;97.00
10030;DHT22;5055;52.054;8.524;2023-03-31T15:21:46;12.90;97.00
10030;DHT22;5055;52.054;8.524;2023-03-31T15:24:21;12.90;97.00
10030;DHT22;5055;52.054;8.524;2023-03-31T15:26:55;12.80;97.00
10030;DHT22;5055;52.054;8.524;2023-03-31T15:29:30;12.80;97.00
10030;DHT22;5055;52.054;8.524;2023-03-31T15:32:00;12.70;97.00
10030;DHT22;5055;52.054;8.524;2023-03-31T15:34:31;12.70;97.00
10030;DHT22;5055;52.054;8.524;2023-03-31T15:37:00;12.70;97.00
10030;DHT22;5055;52.054;8.524;2023-03-31T15:39:31;12.80;97.00
10030;DHT22;5055;52.054;8.524;2023-03-31T15:42:00;12.90;97.00
10030;DHT22;5055;52.054;8.524;2023-03-31T15:44:36;13.00;97.00
10030;DHT22;5055;52.054;8.524;2023-03-31T15:47:11;13.00;97.00
10030;DHT22;5055;52.054;8.524;2023-03-31T15:49:52;12.90;97.00
10030;DHT22;5055;52.054;8.524;2023-03-31T15:52:25;12.90;97.00
10030;DHT22;5055;52.054;8.524;2023-03-31T15:54:54;12.90;97.00
10030;DHT22;5055;52.054;8.524;2023-03-31T15:57:33;12.80;97.00
10030;DHT22;5055;52.054;8.524;2023-03-31T16:00:03;12.90;97.00
10030;DHT22;5055;52.054;8.524;2023-03-31T16:02:42;12.90;97.00
10030;DHT22;5055;52.054;8.524;2023-03-31T16:05:30;12.90;97.00
10030;DHT22;5055;52.054;8.524;2023-03-31T16:08:16;12.80;97.00
10030;DHT22;5055;52.054;8.524;2023-03-31T16:10:46;12.80;97.00
10030;DHT22;5055;52.054;8.524;2023-03-31T16:13:18;12.80;97.00
10030;DHT22;5055;52.054;8.524;2023-03-31T16:15:50;12.80;97.00
10030;DHT22;5055;52.054;8.524;2023-03-31T16:18:26;12.80;97.00
10030;DHT22;5055;52.054;8.524;2023-03-31T16:21:01;12.80;97.00
10030;DHT22;5055;52.054;8.524;2023-03-31T16:23:32;12.80;97.00
10030;DHT22;5055;52.054;8.524;2023-03-31T16:26:04;12.80;97.00
10030;DHT22;5055;52.054;8.524;2023-03-31T16:28:35;12.70;97.00
10030;DHT22;5055;52.054;8.524;2023-03-31T16:31:04;12.70;97.00
10030;DHT22;5055;52.054;8.524;2023-03-31T16:33:55;12.70;97.00
10030;DHT22;5055;52.054;8.524;2023-03-31T16:36:24;12.70;97.00
10030;DHT22;5055;52.054;8.524;2023-03-31T16:38:55;12.70;97.00
10030;DHT22;5055;52.054;8.524;2023-03-31T16:41:27;12.70;97.00
10030;DHT22;5055;52.054;8.524;2023-03-31T16:43:56;12.60;97.00
10030;DHT22;5055;52.054;8.524;2023-03-31T16:46:24;12.60;97.00
10030;DHT22;5055;52.054;8.524;2023-03-31T16:48:53;12.60;97.00
10030;DHT22;5055;52.054;8.524;2023-03-31T16:51:21;12.50;97.00